createdAt,value
2022-08-05T00:06:51.658Z,230.03
2022-08-05T00:16:55.317Z,231.43
2022-08-05T00:27:00.122Z,232.07
2022-08-05T00:37:13.139Z,225.60
2022-08-05T00:47:19.047Z,237.43
2022-08-05T00:57:22.723Z,225.83
2022-08-05T01:07:31.688Z,223.43
2022-08-05T01:17:44.246Z,229.00
2022-08-05T01:28:18.960Z,223.73
2022-08-05T01:38:26.927Z,224.23
2022-08-05T01:48:37.648Z,223.27
2022-08-05T01:58:45.246Z,220.30
2022-08-05T02:08:58.751Z,222.33
2022-08-05T02:19:07.946Z,222.83
2022-08-05T02:29:21.516Z,224.07
2022-08-05T02:39:34.569Z,220.73
2022-08-05T02:49:42.782Z,226.43
2022-08-05T02:59:50.626Z,221.00
2022-08-05T03:09:57.453Z,223.37
2022-08-05T03:20:01.076Z,225.40
2022-08-05T03:30:09.098Z,221.27
2022-08-05T03:40:13.415Z,224.60
2022-08-05T03:50:21.308Z,221.70
2022-08-05T04:00:29.561Z,230.67
2022-08-05T04:10:38.118Z,221.83
2022-08-05T04:20:42.066Z,219.53
2022-08-05T04:30:50.266Z,223.33
2022-08-05T04:40:54.708Z,229.97
2022-08-05T04:51:03.138Z,224.70
2022-08-05T05:01:13.443Z,224.00
2022-08-05T05:11:18.170Z,227.10
2022-08-05T05:21:24.360Z,222.20
2022-08-05T05:41:40.896Z,225.33
2022-08-05T05:51:49.927Z,222.30
2022-08-05T06:01:57.605Z,218.93
2022-08-05T06:12:03.087Z,224.30
2022-08-05T06:22:07.986Z,220.27
2022-08-05T06:32:21.183Z,216.23
2022-08-05T06:42:29.866Z,220.63
2022-08-05T06:52:36.908Z,221.30
2022-08-05T07:02:43.835Z,220.17
2022-08-05T07:13:06.007Z,217.03
2022-08-05T07:23:09.438Z,221.20
2022-08-05T07:33:36.878Z,217.70
2022-08-05T07:43:40.907Z,213.53
2022-08-05T07:53:50.462Z,212.15
2022-08-05T08:03:55.150Z,211.43
2022-08-05T08:14:00.608Z,209.05
2022-08-05T08:24:09.494Z,202.60
2022-08-05T08:34:18.689Z,194.45
2022-08-05T08:45:20.619Z,184.95
2022-08-05T08:54:52.016Z,187.75
2022-08-05T09:05:16.694Z,189.27
2022-08-05T09:15:20.354Z,196.10
2022-08-05T09:26:03.018Z,179.57
2022-08-05T09:35:59.171Z,179.48
2022-08-05T09:46:06.569Z,222.93
2022-08-05T09:56:13.668Z,171.20
2022-08-05T10:06:21.452Z,176.48
2022-08-05T10:16:37.943Z,173.18
2022-08-05T10:26:52.396Z,178.05
2022-08-05T10:36:57.593Z,183.45
2022-08-05T10:47:26.756Z,174.73
2022-08-05T10:57:35.952Z,180.48
2022-08-05T11:08:03.227Z,185.93
2022-08-05T11:18:32.656Z,183.95
2022-08-05T11:28:48.596Z,189.15
2022-08-05T11:38:54.772Z,187.10
2022-08-05T11:49:02.626Z,193.23
2022-08-05T11:59:13.754Z,204.20
2022-08-05T12:09:22.499Z,198.48
2022-08-05T12:20:26.767Z,201.10
2022-08-05T12:30:15.382Z,193.25
2022-08-05T12:40:26.690Z,195.18
2022-08-05T12:50:32.225Z,193.02
2022-08-05T13:01:59.712Z,174.88
2022-08-05T13:11:08.933Z,171.27
2022-08-05T13:21:13.689Z,174.70
2022-08-05T13:31:17.143Z,171.00
2022-08-05T13:41:38.958Z,183.50
2022-08-05T13:51:46.718Z,188.70
2022-08-05T14:01:57.674Z,194.23
2022-08-05T14:12:17.155Z,200.20
2022-08-05T14:22:23.494Z,192.18
2022-08-05T14:32:34.450Z,197.57
2022-08-05T14:42:43.617Z,196.45
2022-08-05T14:52:53.589Z,206.55
2022-08-05T15:03:02.620Z,198.77
2022-08-05T15:13:10.269Z,202.10
2022-08-05T15:23:15.896Z,201.35
2022-08-05T15:33:21.859Z,201.32
2022-08-05T15:43:45.306Z,209.82
2022-08-05T15:53:51.933Z,204.55
2022-08-05T16:03:56.684Z,210.82
2022-08-05T16:14:00.107Z,202.55
2022-08-05T16:24:05.833Z,201.85
2022-08-05T16:34:16.464Z,208.95
2022-08-05T16:44:21.424Z,205.13
2022-08-05T16:54:33.120Z,207.10
2022-08-05T17:04:38.042Z,209.57
2022-08-05T17:14:43.840Z,214.65
2022-08-05T17:24:57.755Z,222.50
2022-08-05T17:35:02.025Z,224.18
2022-08-05T17:45:17.994Z,223.32
2022-08-05T17:55:34.724Z,224.00
2022-08-05T18:05:43.530Z,229.93
2022-08-05T18:15:56.904Z,221.90
2022-08-05T18:26:02.274Z,225.70
2022-08-05T18:36:11.980Z,221.43
2022-08-05T18:46:20.696Z,227.50
2022-08-05T18:56:25.203Z,234.80
2022-08-05T19:06:34.052Z,225.43
2022-08-05T19:16:47.081Z,223.37
2022-08-05T19:26:55.327Z,227.03
2022-08-05T19:36:59.148Z,230.37
2022-08-05T19:47:04.257Z,221.30
2022-08-05T19:57:09.733Z,232.53
2022-08-05T20:07:14.875Z,226.10
2022-08-05T20:17:18.202Z,227.10
2022-08-05T20:27:26.405Z,237.93
2022-08-05T20:38:05.357Z,231.23
2022-08-05T20:47:55.195Z,233.83
2022-08-05T20:57:58.619Z,231.50
2022-08-05T21:08:03.853Z,226.07
2022-08-05T21:18:07.999Z,230.87
2022-08-05T21:28:13.048Z,232.87
2022-08-05T21:38:21.934Z,233.73
2022-08-05T21:48:26.636Z,232.63
2022-08-05T21:58:32.151Z,230.27
2022-08-05T22:08:37.229Z,228.97
2022-08-05T22:18:49.158Z,228.83
2022-08-05T22:28:54.195Z,231.33
2022-08-05T22:38:57.969Z,224.93
2022-08-05T22:49:46.035Z,229.70
2022-08-05T22:59:46.189Z,235.67
2022-08-05T23:10:01.253Z,233.60
2022-08-05T23:20:16.453Z,234.43
2022-08-05T23:30:27.075Z,233.90
2022-08-05T23:40:32.674Z,234.27
2022-08-05T23:50:39.225Z,235.90
